sensor_id;sensor_type;location;lat;lon;timestamp;P1;durP1;ratioP1;P2;durP2;ratioP2
16272;SDS011;8244;50.044;9.006;2023-05-29T00:02:19;8.80;;;3.67;;
16272;SDS011;8244;50.044;9.006;2023-05-29T00:07:21;7.68;;;3.58;;
16272;SDS011;8244;50.044;9.006;2023-05-29T00:12:24;9.98;;;4.53;;
16272;SDS011;8244;50.044;9.006;2023-05-29T00:17:25;8.40;;;3.90;;
16272;SDS011;8244;50.044;9.006;2023-05-29T00:22:27;10.15;;;4.15;;
16272;SDS011;8244;50.044;9.006;2023-05-29T00:27:31;8.10;;;3.58;;
16272;SDS011;8244;50.044;9.006;2023-05-29T00:32:33;10.20;;;3.95;;
16272;SDS011;8244;50.044;9.006;2023-05-29T00:37:35;8.05;;;3.85;;
16272;SDS011;8244;50.044;9.006;2023-05-29T00:42:38;8.70;;;4.07;;
16272;SDS011;8244;50.044;9.006;2023-05-29T00:47:40;8.40;;;4.32;;
16272;SDS011;8244;50.044;9.006;2023-05-29T00:52:43;8.73;;;3.85;;
16272;SDS011;8244;50.044;9.006;2023-05-29T00:57:47;7.82;;;3.78;;
16272;SDS011;8244;50.044;9.006;2023-05-29T01:02:49;10.38;;;4.07;;
16272;SDS011;8244;50.044;9.006;2023-05-29T01:07:52;9.98;;;4.07;;
16272;SDS011;8244;50.044;9.006;2023-05-29T01:12:57;9.50;;;3.85;;
16272;SDS011;8244;50.044;9.006;2023-05-29T01:18:16;8.52;;;4.15;;
16272;SDS011;8244;50.044;9.006;2023-05-29T01:23:37;7.85;;;3.70;;
16272;SDS011;8244;50.044;9.006;2023-05-29T01:28:53;8.55;;;4.18;;
16272;SDS011;8244;50.044;9.006;2023-05-29T01:34:01;7.65;;;3.80;;
16272;SDS011;8244;50.044;9.006;2023-05-29T01:39:03;8.77;;;4.00;;
16272;SDS011;8244;50.044;9.006;2023-05-29T01:44:07;8.32;;;3.53;;
16272;SDS011;8244;50.044;9.006;2023-05-29T01:49:10;7.47;;;3.40;;
16272;SDS011;8244;50.044;9.006;2023-05-29T01:54:12;9.43;;;3.67;;
16272;SDS011;8244;50.044;9.006;2023-05-29T01:59:16;7.55;;;3.72;;
16272;SDS011;8244;50.044;9.006;2023-05-29T02:04:18;9.57;;;3.67;;
16272;SDS011;8244;50.044;9.006;2023-05-29T02:09:20;8.63;;;3.55;;
16272;SDS011;8244;50.044;9.006;2023-05-29T02:14:24;8.95;;;3.75;;
16272;SDS011;8244;50.044;9.006;2023-05-29T02:19:25;10.98;;;3.50;;
16272;SDS011;8244;50.044;9.006;2023-05-29T02:24:27;7.20;;;3.65;;
16272;SDS011;8244;50.044;9.006;2023-05-29T02:29:30;7.20;;;3.70;;
16272;SDS011;8244;50.044;9.006;2023-05-29T02:34:31;10.30;;;4.00;;
16272;SDS011;8244;50.044;9.006;2023-05-29T02:39:33;9.07;;;3.97;;
16272;SDS011;8244;50.044;9.006;2023-05-29T02:44:36;7.47;;;3.92;;
16272;SDS011;8244;50.044;9.006;2023-05-29T02:49:38;7.95;;;3.92;;
16272;SDS011;8244;50.044;9.006;2023-05-29T02:54:40;7.63;;;4.07;;
16272;SDS011;8244;50.044;9.006;2023-05-29T02:59:43;8.32;;;3.70;;
16272;SDS011;8244;50.044;9.006;2023-05-29T03:04:45;8.02;;;4.22;;
16272;SDS011;8244;50.044;9.006;2023-05-29T03:09:50;10.43;;;4.55;;
16272;SDS011;8244;50.044;9.006;2023-05-29T03:14:53;7.47;;;3.67;;
16272;SDS011;8244;50.044;9.006;2023-05-29T03:19:56;8.85;;;3.80;;
16272;SDS011;8244;50.044;9.006;2023-05-29T03:24:58;8.63;;;3.85;;
16272;SDS011;8244;50.044;9.006;2023-05-29T03:30:01;8.40;;;4.05;;
16272;SDS011;8244;50.044;9.006;2023-05-29T03:35:04;9.80;;;4.20;;
16272;SDS011;8244;50.044;9.006;2023-05-29T03:40:06;10.05;;;4.45;;
16272;SDS011;8244;50.044;9.006;2023-05-29T03:45:10;9.90;;;3.67;;
16272;SDS011;8244;50.044;9.006;2023-05-29T03:50:12;10.02;;;4.25;;
16272;SDS011;8244;50.044;9.006;2023-05-29T03:55:15;7.90;;;3.85;;
16272;SDS011;8244;50.044;9.006;2023-05-29T04:00:18;10.10;;;4.18;;
16272;SDS011;8244;50.044;9.006;2023-05-29T04:05:20;8.82;;;3.97;;
16272;SDS011;8244;50.044;9.006;2023-05-29T04:10:22;7.63;;;4.13;;
16272;SDS011;8244;50.044;9.006;2023-05-29T04:15:26;8.50;;;4.10;;
16272;SDS011;8244;50.044;9.006;2023-05-29T04:20:27;9.65;;;4.07;;
16272;SDS011;8244;50.044;9.006;2023-05-29T04:25:29;7.25;;;3.60;;
16272;SDS011;8244;50.044;9.006;2023-05-29T04:30:33;10.00;;;4.30;;
16272;SDS011;8244;50.044;9.006;2023-05-29T04:35:35;10.05;;;4.00;;
16272;SDS011;8244;50.044;9.006;2023-05-29T04:40:37;7.38;;;3.85;;
16272;SDS011;8244;50.044;9.006;2023-05-29T04:45:41;8.27;;;4.07;;
16272;SDS011;8244;50.044;9.006;2023-05-29T04:50:43;8.32;;;3.80;;
16272;SDS011;8244;50.044;9.006;2023-05-29T04:55:45;9.30;;;3.60;;
16272;SDS011;8244;50.044;9.006;2023-05-29T05:00:48;7.38;;;3.80;;
16272;SDS011;8244;50.044;9.006;2023-05-29T05:05:50;9.93;;;3.60;;
16272;SDS011;8244;50.044;9.006;2023-05-29T05:10:52;10.48;;;3.60;;
16272;SDS011;8244;50.044;9.006;2023-05-29T05:15:55;7.05;;;3.47;;
16272;SDS011;8244;50.044;9.006;2023-05-29T05:20:57;6.70;;;3.42;;
16272;SDS011;8244;50.044;9.006;2023-05-29T05:25:58;6.03;;;3.20;;
16272;SDS011;8244;50.044;9.006;2023-05-29T05:31:01;9.25;;;3.50;;
16272;SDS011;8244;50.044;9.006;2023-05-29T05:36:03;8.10;;;3.38;;
16272;SDS011;8244;50.044;9.006;2023-05-29T05:41:05;8.65;;;3.45;;
16272;SDS011;8244;50.044;9.006;2023-05-29T05:46:08;7.43;;;3.30;;
16272;SDS011;8244;50.044;9.006;2023-05-29T05:51:09;12.23;;;3.15;;
16272;SDS011;8244;50.044;9.006;2023-05-29T05:56:12;9.68;;;3.72;;
16272;SDS011;8244;50.044;9.006;2023-05-29T06:01:15;6.68;;;2.80;;
16272;SDS011;8244;50.044;9.006;2023-05-29T06:06:18;10.10;;;3.33;;
16272;SDS011;8244;50.044;9.006;2023-05-29T06:11:20;8.45;;;3.55;;
16272;SDS011;8244;50.044;9.006;2023-05-29T06:16:23;6.78;;;3.08;;
16272;SDS011;8244;50.044;9.006;2023-05-29T06:21:25;5.40;;;2.88;;
16272;SDS011;8244;50.044;9.006;2023-05-29T06:26:26;6.82;;;2.83;;
16272;SDS011;8244;50.044;9.006;2023-05-29T06:31:29;6.10;;;2.80;;
16272;SDS011;8244;50.044;9.006;2023-05-29T06:36:33;5.25;;;2.92;;
16272;SDS011;8244;50.044;9.006;2023-05-29T06:41:34;7.75;;;3.05;;
16272;SDS011;8244;50.044;9.006;2023-05-29T06:46:38;5.87;;;3.17;;
16272;SDS011;8244;50.044;9.006;2023-05-29T06:51:39;6.35;;;2.90;;
16272;SDS011;8244;50.044;9.006;2023-05-29T06:56:41;5.90;;;2.70;;
16272;SDS011;8244;50.044;9.006;2023-05-29T07:01:44;7.95;;;3.03;;
16272;SDS011;8244;50.044;9.006;2023-05-29T07:06:46;5.03;;;2.80;;
16272;SDS011;8244;50.044;9.006;2023-05-29T07:11:47;7.20;;;2.97;;
16272;SDS011;8244;50.044;9.006;2023-05-29T07:16:50;6.63;;;3.35;;
16272;SDS011;8244;50.044;9.006;2023-05-29T07:21:52;6.97;;;3.13;;
16272;SDS011;8244;50.044;9.006;2023-05-29T07:26:54;3.63;;;2.58;;
16272;SDS011;8244;50.044;9.006;2023-05-29T07:31:57;5.38;;;2.67;;
16272;SDS011;8244;50.044;9.006;2023-05-29T07:37:00;5.10;;;2.63;;
16272;SDS011;8244;50.044;9.006;2023-05-29T07:42:02;7.18;;;2.92;;
16272;SDS011;8244;50.044;9.006;2023-05-29T07:47:07;5.38;;;2.60;;
16272;SDS011;8244;50.044;9.006;2023-05-29T07:52:08;6.68;;;3.40;;
16272;SDS011;8244;50.044;9.006;2023-05-29T07:57:10;5.18;;;2.75;;
16272;SDS011;8244;50.044;9.006;2023-05-29T08:02:13;8.48;;;2.88;;
16272;SDS011;8244;50.044;9.006;2023-05-29T08:07:15;4.85;;;2.85;;
16272;SDS011;8244;50.044;9.006;2023-05-29T08:12:16;3.35;;;2.47;;
16272;SDS011;8244;50.044;9.006;2023-05-29T08:17:19;9.60;;;3.00;;
16272;SDS011;8244;50.044;9.006;2023-05-29T08:22:27;5.68;;;2.70;;
16272;SDS011;8244;50.044;9.006;2023-05-29T08:27:29;5.88;;;2.72;;
16272;SDS011;8244;50.044;9.006;2023-05-29T08:32:32;5.82;;;2.60;;
16272;SDS011;8244;50.044;9.006;2023-05-29T08:37:33;5.25;;;2.72;;
16272;SDS011;8244;50.044;9.006;2023-05-29T08:42:36;5.63;;;2.67;;
16272;SDS011;8244;50.044;9.006;2023-05-29T08:47:45;5.80;;;2.60;;
16272;SDS011;8244;50.044;9.006;2023-05-29T08:52:52;7.25;;;2.90;;
16272;SDS011;8244;50.044;9.006;2023-05-29T08:57:54;6.95;;;2.78;;
16272;SDS011;8244;50.044;9.006;2023-05-29T09:02:57;6.20;;;2.97;;
16272;SDS011;8244;50.044;9.006;2023-05-29T09:08:00;5.38;;;3.00;;
16272;SDS011;8244;50.044;9.006;2023-05-29T09:13:04;6.88;;;3.13;;
16272;SDS011;8244;50.044;9.006;2023-05-29T09:18:08;4.30;;;2.88;;
16272;SDS011;8244;50.044;9.006;2023-05-29T09:23:10;4.90;;;2.70;;
16272;SDS011;8244;50.044;9.006;2023-05-29T09:28:12;5.00;;;2.55;;
16272;SDS011;8244;50.044;9.006;2023-05-29T09:33:15;4.03;;;2.58;;
16272;SDS011;8244;50.044;9.006;2023-05-29T09:38:17;5.35;;;2.78;;
16272;SDS011;8244;50.044;9.006;2023-05-29T09:43:20;4.97;;;2.70;;
16272;SDS011;8244;50.044;9.006;2023-05-29T09:48:25;4.50;;;2.60;;
16272;SDS011;8244;50.044;9.006;2023-05-29T09:53:27;3.42;;;2.50;;
16272;SDS011;8244;50.044;9.006;2023-05-29T09:58:29;4.95;;;2.65;;
16272;SDS011;8244;50.044;9.006;2023-05-29T10:03:34;7.15;;;2.60;;
16272;SDS011;8244;50.044;9.006;2023-05-29T10:08:36;3.83;;;2.55;;
16272;SDS011;8244;50.044;9.006;2023-05-29T10:13:43;6.90;;;2.70;;
16272;SDS011;8244;50.044;9.006;2023-05-29T10:18:53;4.85;;;2.70;;
16272;SDS011;8244;50.044;9.006;2023-05-29T10:23:56;5.22;;;2.67;;
16272;SDS011;8244;50.044;9.006;2023-05-29T10:29:02;6.53;;;2.80;;
16272;SDS011;8244;50.044;9.006;2023-05-29T10:34:18;8.70;;;2.80;;
16272;SDS011;8244;50.044;9.006;2023-05-29T10:39:26;4.68;;;2.88;;
16272;SDS011;8244;50.044;9.006;2023-05-29T10:44:37;8.38;;;3.38;;
16272;SDS011;8244;50.044;9.006;2023-05-29T10:49:50;5.22;;;3.10;;
16272;SDS011;8244;50.044;9.006;2023-05-29T10:54:52;5.95;;;2.90;;
16272;SDS011;8244;50.044;9.006;2023-05-29T11:00:03;4.38;;;2.70;;
16272;SDS011;8244;50.044;9.006;2023-05-29T11:05:23;6.22;;;2.75;;
16272;SDS011;8244;50.044;9.006;2023-05-29T11:10:41;4.70;;;2.40;;
16272;SDS011;8244;50.044;9.006;2023-05-29T11:15:44;5.70;;;2.83;;
16272;SDS011;8244;50.044;9.006;2023-05-29T11:20:49;4.03;;;2.58;;
16272;SDS011;8244;50.044;9.006;2023-05-29T11:25:56;5.93;;;3.00;;
16272;SDS011;8244;50.044;9.006;2023-05-29T11:31:00;6.05;;;2.72;;
16272;SDS011;8244;50.044;9.006;2023-05-29T11:36:10;4.93;;;2.78;;
16272;SDS011;8244;50.044;9.006;2023-05-29T11:41:12;3.95;;;2.50;;
16272;SDS011;8244;50.044;9.006;2023-05-29T11:46:17;3.95;;;2.75;;
16272;SDS011;8244;50.044;9.006;2023-05-29T11:51:20;5.53;;;3.28;;
16272;SDS011;8244;50.044;9.006;2023-05-29T11:56:22;5.15;;;2.70;;
16272;SDS011;8244;50.044;9.006;2023-05-29T12:01:25;6.75;;;3.03;;
16272;SDS011;8244;50.044;9.006;2023-05-29T12:06:32;4.75;;;2.60;;
16272;SDS011;8244;50.044;9.006;2023-05-29T12:11:35;5.20;;;2.90;;
16272;SDS011;8244;50.044;9.006;2023-05-29T12:16:37;4.85;;;2.80;;
16272;SDS011;8244;50.044;9.006;2023-05-29T12:21:42;3.95;;;2.83;;
16272;SDS011;8244;50.044;9.006;2023-05-29T12:26:44;6.18;;;3.08;;
16272;SDS011;8244;50.044;9.006;2023-05-29T12:31:47;4.90;;;2.80;;
16272;SDS011;8244;50.044;9.006;2023-05-29T12:37:05;4.60;;;2.63;;
16272;SDS011;8244;50.044;9.006;2023-05-29T12:42:09;4.13;;;2.80;;
16272;SDS011;8244;50.044;9.006;2023-05-29T12:47:13;4.03;;;2.90;;
16272;SDS011;8244;50.044;9.006;2023-05-29T12:52:21;4.93;;;3.05;;
16272;SDS011;8244;50.044;9.006;2023-05-29T12:57:25;4.97;;;2.80;;
16272;SDS011;8244;50.044;9.006;2023-05-29T13:02:26;7.00;;;3.10;;
16272;SDS011;8244;50.044;9.006;2023-05-29T13:07:30;3.83;;;2.70;;
16272;SDS011;8244;50.044;9.006;2023-05-29T13:12:32;6.15;;;3.10;;
16272;SDS011;8244;50.044;9.006;2023-05-29T13:17:34;4.93;;;2.67;;
16272;SDS011;8244;50.044;9.006;2023-05-29T13:22:37;5.93;;;2.90;;
16272;SDS011;8244;50.044;9.006;2023-05-29T13:27:41;5.22;;;2.95;;
16272;SDS011;8244;50.044;9.006;2023-05-29T13:32:44;5.22;;;2.72;;
16272;SDS011;8244;50.044;9.006;2023-05-29T13:37:47;6.70;;;2.88;;
16272;SDS011;8244;50.044;9.006;2023-05-29T13:42:49;7.13;;;2.97;;
16272;SDS011;8244;50.044;9.006;2023-05-29T13:47:51;3.47;;;2.70;;
16272;SDS011;8244;50.044;9.006;2023-05-29T13:52:54;7.38;;;3.28;;
16272;SDS011;8244;50.044;9.006;2023-05-29T13:57:55;6.07;;;3.30;;
16272;SDS011;8244;50.044;9.006;2023-05-29T14:02:57;5.18;;;3.10;;
16272;SDS011;8244;50.044;9.006;2023-05-29T14:08:00;6.15;;;3.10;;
16272;SDS011;8244;50.044;9.006;2023-05-29T14:13:02;5.53;;;3.30;;
16272;SDS011;8244;50.044;9.006;2023-05-29T14:18:04;4.85;;;2.95;;
16272;SDS011;8244;50.044;9.006;2023-05-29T14:23:08;7.40;;;3.13;;
16272;SDS011;8244;50.044;9.006;2023-05-29T14:28:13;6.47;;;3.00;;
16272;SDS011;8244;50.044;9.006;2023-05-29T14:33:15;8.57;;;3.42;;
16272;SDS011;8244;50.044;9.006;2023-05-29T14:38:18;5.63;;;2.75;;
16272;SDS011;8244;50.044;9.006;2023-05-29T14:43:20;5.60;;;3.25;;
16272;SDS011;8244;50.044;9.006;2023-05-29T14:48:21;5.22;;;3.17;;
16272;SDS011;8244;50.044;9.006;2023-05-29T14:53:24;5.05;;;3.20;;
16272;SDS011;8244;50.044;9.006;2023-05-29T14:58:26;6.22;;;3.00;;
16272;SDS011;8244;50.044;9.006;2023-05-29T15:03:27;6.97;;;3.03;;
16272;SDS011;8244;50.044;9.006;2023-05-29T15:08:31;7.55;;;3.15;;
16272;SDS011;8244;50.044;9.006;2023-05-29T15:13:34;5.78;;;3.40;;
16272;SDS011;8244;50.044;9.006;2023-05-29T15:18:36;5.85;;;3.22;;
16272;SDS011;8244;50.044;9.006;2023-05-29T15:23:39;5.15;;;3.03;;
16272;SDS011;8244;50.044;9.006;2023-05-29T15:28:43;7.82;;;3.60;;
16272;SDS011;8244;50.044;9.006;2023-05-29T15:33:45;6.05;;;3.13;;
16272;SDS011;8244;50.044;9.006;2023-05-29T15:38:48;7.15;;;3.28;;
16272;SDS011;8244;50.044;9.006;2023-05-29T15:43:50;7.18;;;3.72;;
16272;SDS011;8244;50.044;9.006;2023-05-29T15:48:51;6.10;;;3.47;;
16272;SDS011;8244;50.044;9.006;2023-05-29T15:53:55;5.80;;;3.05;;
16272;SDS011;8244;50.044;9.006;2023-05-29T15:58:56;6.10;;;3.20;;
16272;SDS011;8244;50.044;9.006;2023-05-29T16:03:58;6.32;;;3.13;;
16272;SDS011;8244;50.044;9.006;2023-05-29T16:09:01;5.13;;;3.30;;
16272;SDS011;8244;50.044;9.006;2023-05-29T16:14:03;8.05;;;3.22;;
16272;SDS011;8244;50.044;9.006;2023-05-29T16:19:05;5.50;;;3.47;;
16272;SDS011;8244;50.044;9.006;2023-05-29T16:24:08;5.05;;;3.25;;
16272;SDS011;8244;50.044;9.006;2023-05-29T16:29:11;7.03;;;3.35;;
16272;SDS011;8244;50.044;9.006;2023-05-29T16:34:17;6.18;;;3.38;;
16272;SDS011;8244;50.044;9.006;2023-05-29T16:39:20;5.82;;;3.28;;
16272;SDS011;8244;50.044;9.006;2023-05-29T16:44:22;7.45;;;3.38;;
16272;SDS011;8244;50.044;9.006;2023-05-29T16:49:23;7.97;;;3.60;;
16272;SDS011;8244;50.044;9.006;2023-05-29T16:54:27;6.53;;;3.50;;
16272;SDS011;8244;50.044;9.006;2023-05-29T16:59:30;7.00;;;3.22;;
16272;SDS011;8244;50.044;9.006;2023-05-29T17:04:32;8.00;;;3.25;;
16272;SDS011;8244;50.044;9.006;2023-05-29T17:09:37;9.70;;;3.58;;
16272;SDS011;8244;50.044;9.006;2023-05-29T17:14:38;6.75;;;3.33;;
16272;SDS011;8244;50.044;9.006;2023-05-29T17:19:40;7.13;;;3.25;;
16272;SDS011;8244;50.044;9.006;2023-05-29T17:24:43;7.50;;;3.35;;
16272;SDS011;8244;50.044;9.006;2023-05-29T17:29:45;8.65;;;3.50;;
16272;SDS011;8244;50.044;9.006;2023-05-29T17:34:47;6.43;;;3.33;;
16272;SDS011;8244;50.044;9.006;2023-05-29T17:39:53;7.80;;;3.28;;
16272;SDS011;8244;50.044;9.006;2023-05-29T17:44:54;7.07;;;3.78;;
16272;SDS011;8244;50.044;9.006;2023-05-29T17:49:56;5.40;;;3.35;;
16272;SDS011;8244;50.044;9.006;2023-05-29T17:54:59;7.93;;;3.42;;
16272;SDS011;8244;50.044;9.006;2023-05-29T18:00:01;7.18;;;3.33;;
16272;SDS011;8244;50.044;9.006;2023-05-29T18:05:04;7.57;;;3.10;;
16272;SDS011;8244;50.044;9.006;2023-05-29T18:10:08;6.28;;;3.40;;
16272;SDS011;8244;50.044;9.006;2023-05-29T18:15:10;7.22;;;3.38;;
16272;SDS011;8244;50.044;9.006;2023-05-29T18:20:13;6.95;;;3.65;;
16272;SDS011;8244;50.044;9.006;2023-05-29T18:25:19;9.68;;;4.00;;
16272;SDS011;8244;50.044;9.006;2023-05-29T18:30:21;7.22;;;3.45;;
16272;SDS011;8244;50.044;9.006;2023-05-29T18:35:23;5.97;;;3.10;;
16272;SDS011;8244;50.044;9.006;2023-05-29T18:40:26;8.15;;;3.60;;
16272;SDS011;8244;50.044;9.006;2023-05-29T18:45:28;11.95;;;3.67;;
16272;SDS011;8244;50.044;9.006;2023-05-29T18:50:30;12.07;;;4.05;;
16272;SDS011;8244;50.044;9.006;2023-05-29T18:55:33;10.70;;;3.88;;
16272;SDS011;8244;50.044;9.006;2023-05-29T19:00:34;8.07;;;3.60;;
16272;SDS011;8244;50.044;9.006;2023-05-29T19:05:36;9.43;;;3.65;;
16272;SDS011;8244;50.044;9.006;2023-05-29T19:10:40;8.63;;;3.53;;
16272;SDS011;8244;50.044;9.006;2023-05-29T19:15:42;11.27;;;3.80;;
16272;SDS011;8244;50.044;9.006;2023-05-29T19:20:43;7.63;;;3.55;;
16272;SDS011;8244;50.044;9.006;2023-05-29T19:25:46;10.75;;;3.67;;
16272;SDS011;8244;50.044;9.006;2023-05-29T19:30:48;8.25;;;3.63;;
16272;SDS011;8244;50.044;9.006;2023-05-29T19:35:51;9.85;;;3.65;;
16272;SDS011;8244;50.044;9.006;2023-05-29T19:40:54;8.50;;;3.90;;
16272;SDS011;8244;50.044;9.006;2023-05-29T19:45:56;10.77;;;3.50;;
16272;SDS011;8244;50.044;9.006;2023-05-29T19:50:57;11.10;;;3.80;;
16272;SDS011;8244;50.044;9.006;2023-05-29T19:56:00;7.35;;;3.50;;
16272;SDS011;8244;50.044;9.006;2023-05-29T20:01:02;6.95;;;3.33;;
16272;SDS011;8244;50.044;9.006;2023-05-29T20:06:04;10.50;;;3.70;;
16272;SDS011;8244;50.044;9.006;2023-05-29T20:11:08;7.90;;;3.53;;
16272;SDS011;8244;50.044;9.006;2023-05-29T20:16:09;6.90;;;3.25;;
16272;SDS011;8244;50.044;9.006;2023-05-29T20:21:11;11.52;;;3.65;;
16272;SDS011;8244;50.044;9.006;2023-05-29T20:26:15;10.25;;;3.53;;
16272;SDS011;8244;50.044;9.006;2023-05-29T20:31:17;11.18;;;3.47;;
16272;SDS011;8244;50.044;9.006;2023-05-29T20:36:18;10.15;;;3.22;;
16272;SDS011;8244;50.044;9.006;2023-05-29T20:41:21;10.90;;;3.63;;
16272;SDS011;8244;50.044;9.006;2023-05-29T20:46:24;9.07;;;3.72;;
16272;SDS011;8244;50.044;9.006;2023-05-29T20:51:25;8.02;;;3.60;;
16272;SDS011;8244;50.044;9.006;2023-05-29T20:56:30;9.02;;;4.03;;
16272;SDS011;8244;50.044;9.006;2023-05-29T21:01:31;9.13;;;3.70;;
16272;SDS011;8244;50.044;9.006;2023-05-29T21:06:33;9.10;;;3.58;;
16272;SDS011;8244;50.044;9.006;2023-05-29T21:11:36;9.07;;;3.75;;
16272;SDS011;8244;50.044;9.006;2023-05-29T21:16:38;10.20;;;3.72;;
16272;SDS011;8244;50.044;9.006;2023-05-29T21:21:40;7.15;;;3.47;;
16272;SDS011;8244;50.044;9.006;2023-05-29T21:26:43;8.32;;;3.60;;
16272;SDS011;8244;50.044;9.006;2023-05-29T21:31:45;8.75;;;3.55;;
16272;SDS011;8244;50.044;9.006;2023-05-29T21:36:47;8.90;;;3.40;;
16272;SDS011;8244;50.044;9.006;2023-05-29T21:41:50;9.68;;;3.70;;
16272;SDS011;8244;50.044;9.006;2023-05-29T21:46:53;12.35;;;3.92;;
16272;SDS011;8244;50.044;9.006;2023-05-29T21:51:55;9.38;;;3.70;;
16272;SDS011;8244;50.044;9.006;2023-05-29T21:56:58;9.32;;;3.75;;
16272;SDS011;8244;50.044;9.006;2023-05-29T22:01:59;9.40;;;3.50;;
16272;SDS011;8244;50.044;9.006;2023-05-29T22:07:01;7.22;;;3.40;;
16272;SDS011;8244;50.044;9.006;2023-05-29T22:12:05;8.82;;;3.50;;
16272;SDS011;8244;50.044;9.006;2023-05-29T22:17:07;10.70;;;3.63;;
16272;SDS011;8244;50.044;9.006;2023-05-29T22:22:09;9.30;;;3.67;;
16272;SDS011;8244;50.044;9.006;2023-05-29T22:27:12;9.00;;;3.22;;
16272;SDS011;8244;50.044;9.006;2023-05-29T22:32:14;8.10;;;3.60;;
16272;SDS011;8244;50.044;9.006;2023-05-29T22:37:15;11.60;;;3.90;;
16272;SDS011;8244;50.044;9.006;2023-05-29T22:42:19;9.48;;;3.20;;
16272;SDS011;8244;50.044;9.006;2023-05-29T22:47:21;8.90;;;3.60;;
16272;SDS011;8244;50.044;9.006;2023-05-29T22:52:23;9.63;;;3.50;;
16272;SDS011;8244;50.044;9.006;2023-05-29T22:57:26;9.18;;;3.33;;
16272;SDS011;8244;50.044;9.006;2023-05-29T23:02:27;9.38;;;3.55;;
16272;SDS011;8244;50.044;9.006;2023-05-29T23:07:29;8.27;;;3.35;;
16272;SDS011;8244;50.044;9.006;2023-05-29T23:12:32;8.63;;;3.63;;
16272;SDS011;8244;50.044;9.006;2023-05-29T23:17:34;10.73;;;3.20;;
16272;SDS011;8244;50.044;9.006;2023-05-29T23:22:36;9.65;;;3.50;;
16272;SDS011;8244;50.044;9.006;2023-05-29T23:27:39;8.38;;;3.20;;
16272;SDS011;8244;50.044;9.006;2023-05-29T23:32:41;10.77;;;4.07;;
16272;SDS011;8244;50.044;9.006;2023-05-29T23:37:43;9.00;;;3.60;;
16272;SDS011;8244;50.044;9.006;2023-05-29T23:42:46;9.48;;;3.47;;
16272;SDS011;8244;50.044;9.006;2023-05-29T23:47:47;9.23;;;3.22;;
16272;SDS011;8244;50.044;9.006;2023-05-29T23:52:49;12.23;;;3.50;;
16272;SDS011;8244;50.044;9.006;2023-05-29T23:57:52;8.73;;;3.22;;
